Terminal Aerodrome Forecast
Issued by NWS

Home | Current Version | Previous Version | Text Only | Print | Product List | Glossary On
Versions: 1 2 3 4 5 6 7 8 9 10 11 12 13 14 15
000
FTUS41 KCAR 230500 RRA
TAFBHB
TAF
KBHB 230547Z 2306/2406 15009KT P6SM OVC008
     FM231100 13005KT P6SM OVC010
     FM231600 14004KT P6SM OVC035
     FM232000 34008KT 4SM -RA OVC015
      AMD LTD TO CLD VIS AND WIND=

USA.gov is the U.S. government's official web portal to all federal, state and local government web resources and services.